Time;durP1;ratioP1;P1;durP2;ratioP2;P2;SDS_P1;SDS_P2;PMS_P1;PMS_P2;Temp;Humidity;BMP_temperature;BMP_pressure;BME280_temperature;BME280_humidity;BME280_pressure;Samples;Min_cycle;Max_cycle;Signal;HPM_P1;HPM_P2
2024/03/07 01:19:47;;;;;;;15.05;2.78;;;;;;;8.51;100.00;100627.09;4819292;29;20443;-95
2024/03/07 01:32:46;;;;;;;14.38;3.22;;;;;;;8.50;100.00;100620.16;4784963;29;20169;-95
2024/03/07 04:23:56;;;;;;;18.35;2.83;;;;;;;7.85;100.00;100601.69;4708497;30;20072;-96
2024/03/07 04:54:17;;;;;;;13.25;2.45;;;;;;;7.71;100.00;100616.75;4726527;30;20136;-92
2024/03/07 04:58:15;;;;;;;12.60;2.30;;;;;;;7.61;100.00;100626.34;4662986;30;20121;-92
2024/03/07 05:05:43;;;;;;;18.40;3.45;;;;;;;7.63;100.00;100634.97;4683933;30;20111;-93
2024/03/07 05:08:49;;;;;;;25.38;3.95;;;;;;;7.61;100.00;100626.34;4715045;29;20050;-93
2024/03/07 05:11:51;;;;;;;17.40;2.63;;;;;;;7.51;100.00;100623.59;4770918;30;20110;-93
2024/03/07 05:14:25;;;;;;;21.52;3.17;;;;;;;7.56;100.00;100629.34;4740002;30;20070;-89
2024/03/07 05:17:08;;;;;;;21.25;3.80;;;;;;;7.63;100.00;100627.91;4739245;30;20051;-93
2024/03/07 05:20:23;;;;;;;23.10;3.58;;;;;;;7.66;100.00;100629.47;4756527;30;20546;-93
2024/03/07 05:22:58;;;;;;;26.33;3.30;;;;;;;7.59;100.00;100626.47;4763926;30;20063;-94
2024/03/07 05:25:28;;;;;;;27.23;4.68;;;;;;;7.63;100.00;100621.81;4738908;30;20043;-93
2024/03/07 05:28:32;;;;;;;34.05;4.82;;;;;;;7.66;100.00;100626.84;4738752;30;20063;-94
2024/03/07 05:31:56;;;;;;;27.98;3.72;;;;;;;7.66;100.00;100624.22;4769084;30;20117;-94
2024/03/07 05:34:23;;;;;;;20.95;3.75;;;;;;;7.64;100.00;100634.00;4746151;29;20069;-90
2024/03/07 05:37:56;;;;;;;15.77;3.17;;;;;;;7.63;100.00;100630.53;4807450;29;20439;-90
2024/03/07 05:40:52;;;;;;;25.42;4.15;;;;;;;7.52;100.00;100631.38;4755790;30;20083;-91
2024/03/07 05:44:09;;;;;;;18.00;3.17;;;;;;;7.54;100.00;100633.88;4788883;29;20046;-90
2024/03/07 05:47:18;;;;;;;17.42;3.00;;;;;;;7.62;100.00;100631.50;4822837;29;20050;-91
2024/03/07 05:54:11;;;;;;;21.42;4.15;;;;;;;7.75;100.00;100633.16;4830077;29;20056;-91
2024/03/07 05:56:48;;;;;;;27.08;3.95;;;;;;;7.65;100.00;100641.78;4828742;29;20473;-91
2024/03/07 05:59:42;;;;;;;18.63;3.80;;;;;;;7.65;100.00;100639.16;4815816;29;20037;-91
2024/03/07 06:02:29;;;;;;;18.23;3.13;;;;;;;7.48;100.00;100640.47;4819939;29;20178;-87
2024/03/07 06:05:04;;;;;;;16.45;3.33;;;;;;;7.59;100.00;100646.69;4824667;29;20113;-92
2024/03/07 06:07:56;;;;;;;23.50;4.50;;;;;;;7.63;100.00;100648.13;4810326;29;20396;-90
2024/03/07 06:10:30;;;;;;;13.55;3.63;;;;;;;7.47;100.00;100638.78;4823200;29;20047;-88
2024/03/07 06:13:02;;;;;;;18.55;4.45;;;;;;;7.38;100.00;100636.88;4823872;29;20045;-89
2024/03/07 06:15:31;;;;;;;13.45;3.65;;;;;;;7.36;100.00;100633.53;4793011;29;20152;-90
2024/03/07 06:18:03;;;;;;;15.60;3.85;;;;;;;7.38;100.00;100652.63;4820066;29;20478;-89
2024/03/07 06:20:32;;;;;;;17.15;4.60;;;;;;;7.41;100.00;100644.50;4830780;29;20073;-90
2024/03/07 06:23:05;;;;;;;26.08;6.68;;;;;;;7.39;100.00;100649.06;4837090;29;20064;-89
2024/03/07 06:25:55;;;;;;;24.23;5.22;;;;;;;7.47;100.00;100645.84;4787837;29;20069;-90
2024/03/07 06:28:31;;;;;;;24.65;4.90;;;;;;;7.26;100.00;100652.63;4790740;29;20114;-91
2024/03/07 06:31:07;;;;;;;10.30;3.33;;;;;;;7.37;100.00;100650.97;4837545;29;20477;-91
2024/03/07 06:34:42;;;;;;;23.73;5.18;;;;;;;7.42;100.00;100643.56;4815423;29;20143;-91
2024/03/07 06:37:27;;;;;;;28.40;6.20;;;;;;;7.38;100.00;100639.50;4794642;29;20050;-91
2024/03/07 06:40:22;;;;;;;14.40;3.63;;;;;;;7.28;100.00;100652.50;4825774;29;20033;-89
2024/03/07 06:47:35;;;;;;;27.80;5.80;;;;;;;7.28;100.00;100648.09;4800265;29;20043;-91
2024/03/07 06:50:29;;;;;;;10.30;3.05;;;;;;;7.14;100.00;100643.91;4788429;29;20042;-89
2024/03/07 06:54:24;;;;;;;21.80;4.88;;;;;;;7.22;100.00;100653.81;4801228;29;20081;-92
2024/03/07 06:57:10;;;;;;;28.08;6.15;;;;;;;7.26;100.00;100650.00;4737486;30;20052;-91
2024/03/07 07:03:16;;;;;;;15.43;4.38;;;;;;;7.16;100.00;100651.66;4699378;30;20060;-92
2024/03/07 07:06:31;;;;;;;16.20;5.32;;;;;;;7.07;100.00;100658.47;4777487;30;20506;-89
2024/03/07 07:10:07;;;;;;;19.70;5.70;;;;;;;7.20;100.00;100658.34;4724355;30;20046;-91
2024/03/07 07:12:56;;;;;;;32.45;7.07;;;;;;;7.07;100.00;100663.72;4755481;30;20051;-90
2024/03/07 07:15:28;;;;;;;22.55;5.80;;;;;;;7.15;100.00;100665.78;4858882;29;20049;-86
2024/03/07 07:21:15;;;;;;;12.05;4.18;;;;;;;7.00;100.00;100659.88;4830849;29;20048;-89
2024/03/07 07:24:34;;;;;;;25.75;6.82;;;;;;;7.18;100.00;100662.91;4842697;29;20111;-92
2024/03/07 07:27:01;;;;;;;26.83;7.15;;;;;;;7.05;100.00;100655.97;4844011;29;20080;-86
2024/03/07 07:29:41;;;;;;;17.08;6.68;;;;;;;7.12;100.00;100652.88;4808622;29;20061;-92
2024/03/07 07:32:14;;;;;;;24.58;8.00;;;;;;;7.16;100.00;100652.50;4827837;29;20080;-92
2024/03/07 07:35:35;;;;;;;16.42;5.43;;;;;;;7.09;100.00;100650.47;4831733;29;20041;-91
2024/03/07 07:38:03;;;;;;;25.02;7.82;;;;;;;7.13;100.00;100655.38;4829926;29;20045;-85
2024/03/07 07:48:50;;;;;;;26.92;7.00;;;;;;;7.24;100.00;100651.06;4812492;29;20065;-90
2024/03/07 07:51:53;;;;;;;24.73;7.05;;;;;;;7.27;100.00;100646.44;4811142;29;20037;-93
2024/03/07 07:55:03;;;;;;;21.63;7.03;;;;;;;7.16;100.00;100660.41;4825903;29;20034;-91
2024/03/07 07:57:35;;;;;;;29.30;8.40;;;;;;;7.19;100.00;100662.78;4825252;29;20043;-90
2024/03/07 08:00:31;;;;;;;26.40;8.35;;;;;;;7.21;100.00;100652.16;4841528;29;20034;-92
2024/03/07 08:03:34;;;;;;;18.95;7.68;;;;;;;7.24;100.00;100651.94;4829982;29;20088;-92
2024/03/07 08:06:34;;;;;;;32.95;9.50;;;;;;;7.31;100.00;100657.56;4811259;29;20050;-90
2024/03/07 08:09:43;;;;;;;19.90;8.63;;;;;;;7.26;100.00;100654.44;4841648;29;20545;-90
2024/03/07 08:16:11;;;;;;;22.88;9.30;;;;;;;7.22;100.00;100650.34;4838615;29;20490;-91
2024/03/07 08:18:49;;;;;;;17.17;8.15;;;;;;;7.23;100.00;100655.50;4821182;29;20036;-89
2024/03/07 08:21:15;;;;;;;19.00;6.70;;;;;;;7.13;100.00;100665.03;4811933;29;20038;-90
2024/03/07 08:24:10;;;;;;;16.90;6.50;;;;;;;7.00;100.00;100644.94;4798758;29;20034;-90
2024/03/07 08:27:24;;;;;;;19.55;8.63;;;;;;;7.12;100.00;100650.22;4823618;29;20054;-90
2024/03/07 08:30:17;;;;;;;21.58;8.23;;;;;;;7.20;100.00;100664.47;4837586;29;20047;-91
2024/03/07 08:32:49;;;;;;;20.42;8.23;;;;;;;7.06;100.00;100649.75;4816356;29;20094;-91
2024/03/07 08:38:51;;;;;;;;;;;;;;;7.36;100.00;100662.47;4827020;29;20556;-86
2024/03/07 08:41:23;;;;;;;24.80;9.65;;;;;;;7.22;100.00;100658.22;4808685;29;19916;-91
2024/03/07 08:43:56;;;;;;;22.77;10.10;;;;;;;7.17;100.00;100662.06;4811189;29;20045;-91
2024/03/07 08:46:22;;;;;;;22.90;10.00;;;;;;;7.25;100.00;100661.47;4822691;29;20042;-91
2024/03/07 08:48:55;;;;;;;19.63;10.52;;;;;;;7.32;100.00;100660.06;4840949;29;20042;-89
2024/03/07 08:51:50;;;;;;;17.48;8.35;;;;;;;7.15;100.00;100663.97;4796087;29;20049;-89
2024/03/07 08:54:20;;;;;;;21.67;8.70;;;;;;;7.16;100.00;100656.91;4816298;29;20050;-89
2024/03/07 08:56:46;;;;;;;22.65;10.65;;;;;;;7.21;100.00;100657.41;4825975;29;20038;-88
2024/03/07 08:59:17;;;;;;;22.70;9.15;;;;;;;7.14;100.00;100664.94;4811946;29;20450;-89
2024/03/07 09:02:07;;;;;;;23.95;8.18;;;;;;;7.15;100.00;100663.16;4813455;29;20048;-90
2024/03/07 09:04:36;;;;;;;21.90;9.52;;;;;;;7.22;100.00;100668.75;4824002;29;20038;-88
2024/03/07 09:07:06;;;;;;;22.95;9.85;;;;;;;7.39;100.00;100651.72;4823692;29;20113;-91
2024/03/07 09:09:38;;;;;;;20.15;9.52;;;;;;;7.58;100.00;100672.13;4824496;29;20481;-91
2024/03/07 09:12:31;;;;;;;23.20;9.38;;;;;;;7.62;100.00;100660.44;4811093;29;20485;-88
2024/03/07 09:15:28;;;;;;;24.00;9.80;;;;;;;7.61;100.00;100653.50;4827585;29;20045;-91
2024/03/07 09:18:39;;;;;;;17.58;9.45;;;;;;;7.58;100.00;100656.34;4827909;29;20457;-93
2024/03/07 09:21:37;;;;;;;20.65;9.50;;;;;;;7.76;100.00;100654.09;4819666;29;20046;-94
2024/03/07 09:24:21;;;;;;;;;;;;;;;;;;;;;
2024/03/07 09:27:05;;;;;;;19.70;6.97;;;;;;;7.60;100.00;100672.03;4810783;29;20038;-89
2024/03/07 09:30:24;;;;;;;17.52;8.75;;;;;;;7.97;100.00;100650.72;4809829;29;20042;-92
2024/03/07 09:34:20;;;;;;;15.10;7.80;;;;;;;7.93;100.00;100650.13;4815054;29;20041;-92
2024/03/07 09:37:21;;;;;;;9.30;5.93;;;;;;;8.02;100.00;100664.34;4819633;29;20117;-89
2024/03/07 09:40:01;;;;;;;10.73;5.93;;;;;;;7.77;100.00;100665.47;4824231;29;20042;-88
2024/03/07 09:42:35;;;;;;;14.13;5.45;;;;;;;7.74;100.00;100669.16;4841318;29;20387;-92
2024/03/07 09:45:08;;;;;;;14.90;6.07;;;;;;;7.76;100.00;100674.28;4839365;29;20812;-87
2024/03/07 09:47:34;;;;;;;13.82;7.22;;;;;;;8.04;100.00;100665.06;4827690;29;20102;-91
2024/03/07 09:50:10;;;;;;;16.33;6.80;;;;;;;8.18;100.00;100656.06;4810327;29;20038;-92
2024/03/07 09:52:49;;;;;;;13.90;6.50;;;;;;;8.23;100.00;100674.13;4825994;29;20038;-91
2024/03/07 09:55:20;;;;;;;13.25;4.55;;;;;;;7.97;100.00;100658.63;4839775;29;20034;-90
2024/03/07 09:57:52;;;;;;;14.70;6.57;;;;;;;8.25;100.00;100656.38;4827056;29;20182;-93
2024/03/07 10:00:22;;;;;;;17.13;6.15;;;;;;;8.24;100.00;100661.78;4791601;29;20054;-91
2024/03/07 10:03:23;;;;;;;15.50;6.68;;;;;;;8.17;100.00;100669.38;4805211;29;20126;-89
2024/03/07 10:06:00;;;;;;;9.20;4.30;;;;;;;8.09;100.00;100667.31;4773446;29;20047;-91
2024/03/07 10:08:46;;;;;;;18.98;7.22;;;;;;;8.05;100.00;100658.00;4799667;29;20071;-92
2024/03/07 10:11:15;;;;;;;15.15;6.00;;;;;;;8.03;100.00;100658.13;4800181;29;20053;-91
2024/03/07 10:13:46;;;;;;;11.57;5.53;;;;;;;7.81;100.00;100653.72;4804910;29;20119;-90
2024/03/07 10:19:24;;;;;;;16.17;7.18;;;;;;;8.27;100.00;100664.16;4802216;29;20046;-91
2024/03/07 10:21:59;;;;;;;16.75;6.43;;;;;;;8.28;100.00;100655.31;4791048;29;20046;-88
2024/03/07 10:24:28;;;;;;;10.40;5.47;;;;;;;8.10;100.00;100660.25;4790568;29;20054;-90
2024/03/07 10:26:58;;;;;;;12.55;6.30;;;;;;;8.27;100.00;100661.53;4808128;29;20075;-89
2024/03/07 10:29:26;;;;;;;16.55;7.05;;;;;;;8.25;100.00;100664.28;4792658;29;20061;-91
2024/03/07 10:31:55;;;;;;;9.15;4.85;;;;;;;8.06;100.00;100659.66;4843542;29;20102;-90
2024/03/07 10:34:26;;;;;;;11.20;5.53;;;;;;;8.14;100.00;100651.16;4827859;29;20461;-92
2024/03/07 10:36:54;;;;;;;13.73;5.88;;;;;;;8.04;100.00;100649.25;4835591;29;20034;-88
2024/03/07 10:39:21;;;;;;;9.15;3.90;;;;;;;8.15;100.00;100652.84;4840108;29;20429;-90
2024/03/07 10:41:50;;;;;;;12.35;5.55;;;;;;;8.17;100.00;100650.94;4798210;29;20073;-92
2024/03/07 10:44:41;;;;;;;14.77;6.78;;;;;;;8.28;100.00;100629.81;4828852;29;20045;-93
2024/03/07 10:47:57;;;;;;;13.38;5.93;;;;;;;8.30;100.00;100621.78;4820943;29;20042;-91
2024/03/07 10:51:50;;;;;;;;;;;;;;;;;;;;;
2024/03/07 10:54:38;;;;;;;17.75;7.25;;;;;;;8.75;100.00;100641.03;4705915;30;20469;-90
2024/03/07 10:58:06;;;;;;;15.63;6.20;;;;;;;8.79;100.00;100642.47;4748350;30;20044;-93
2024/03/07 11:01:30;;;;;;;12.23;5.38;;;;;;;8.77;100.00;100632.06;4708172;30;20060;-91
2024/03/07 11:04:32;;;;;;;9.75;5.18;;;;;;;8.41;100.00;100639.34;4709505;30;20041;-92
2024/03/07 11:07:25;;;;;;;12.00;4.65;;;;;;;8.52;100.00;100622.69;4761021;29;20082;-94
2024/03/07 11:13:53;;;;;;;6.13;2.78;;;;;;;8.98;100.00;100627.75;4818544;29;20042;-92
2024/03/07 11:16:21;;;;;;;12.10;4.88;;;;;;;8.71;100.00;100626.44;4824853;29;20077;-90
2024/03/07 11:19:29;;;;;;;5.03;3.15;;;;;;;8.67;100.00;100615.31;4779646;29;20054;-91
2024/03/07 11:25:39;;;;;;;15.27;4.15;;;;;;;9.11;100.00;100619.63;4818751;29;20505;-89
2024/03/07 11:28:28;;;;;;;7.07;4.70;;;;;;;9.13;100.00;100615.88;4812801;29;20042;-94
2024/03/07 11:31:25;;;;;;;13.50;4.70;;;;;;;8.80;100.00;100612.50;4824649;29;20041;-91
2024/03/07 11:34:18;;;;;;;12.07;2.97;;;;;;;8.68;100.00;100606.44;4835156;29;20094;-87
2024/03/07 11:37:09;;;;;;;12.55;3.72;;;;;;;9.08;100.00;100601.44;4841077;29;20072;-90
2024/03/07 11:40:08;;;;;;;9.63;2.55;;;;;;;8.85;100.00;100615.59;4827669;29;20156;-89
2024/03/07 11:42:36;;;;;;;15.57;4.18;;;;;;;8.84;100.00;100605.19;4805718;29;20057;-90
2024/03/07 11:46:11;;;;;;;7.15;3.50;;;;;;;9.18;100.00;100592.59;4819988;29;20033;-92
2024/03/07 11:48:48;;;;;;;9.75;3.10;;;;;;;9.03;100.00;100612.38;4742063;29;20047;-89
2024/03/07 11:51:35;;;;;;;9.38;4.30;;;;;;;9.37;100.00;100606.00;4812909;29;20042;-90
2024/03/07 11:54:14;;;;;;;12.43;5.20;;;;;;;9.20;100.00;100594.25;4821494;29;20130;-93
2024/03/07 11:57:32;;;;;;;9.00;4.15;;;;;;;8.76;100.00;100590.84;4842496;29;20034;-90
2024/03/07 12:03:52;;;;;;;13.85;4.45;;;;;;;9.41;100.00;100604.78;4754789;30;20311;-92
2024/03/07 12:06:22;;;;;;;4.40;1.92;;;;;;;9.22;100.00;100600.25;4744406;30;20130;-92
2024/03/07 12:12:49;;;;;;;8.18;4.38;;;;;;;9.25;100.00;100581.53;4773741;30;20586;-89
2024/03/07 12:15:36;;;;;;;9.77;4.70;;;;;;;9.34;100.00;100588.66;4757220;30;20066;-88
2024/03/07 12:18:22;;;;;;;12.18;5.30;;;;;;;9.34;100.00;100577.25;4772059;30;20103;-88
2024/03/07 12:21:39;;;;;;;10.95;4.57;;;;;;;9.68;100.00;100569.03;4772908;29;20047;-92
2024/03/07 12:25:08;;;;;;;8.23;4.60;;;;;;;10.04;100.00;100579.94;4785388;29;20051;-94
2024/03/07 12:27:34;;;;;;;9.60;4.18;;;;;;;9.70;100.00;100566.25;4755590;30;20167;-93
2024/03/07 12:30:19;;;;;;;4.97;2.22;;;;;;;9.34;100.00;100572.81;4804930;29;20069;-91
2024/03/07 12:37:01;;;;;;;7.25;3.80;;;;;;;9.72;100.00;100548.47;4812002;29;20132;-93
2024/03/07 12:39:35;;;;;;;11.48;4.07;;;;;;;9.82;100.00;100554.59;4813521;29;20034;-95
2024/03/07 12:42:54;;;;;;;7.43;3.10;;;;;;;9.83;100.00;100558.06;4819074;29;20494;-94
2024/03/07 12:45:23;;;;;;;10.35;4.30;;;;;;;9.98;100.00;100554.06;4797023;29;20107;-94
2024/03/07 12:48:04;;;;;;;11.35;3.83;;;;;;;9.92;100.00;100531.69;4817023;29;20058;-91
2024/03/07 12:50:59;;;;;;;11.05;3.95;;;;;;;10.02;100.00;100551.97;4794276;29;20069;-94
2024/03/07 12:53:46;;;;;;;11.45;5.00;;;;;;;10.24;100.00;100531.56;4808004;29;20128;-96
2024/03/07 12:56:17;;;;;;;9.82;4.07;;;;;;;9.91;100.00;100537.09;4811313;29;20264;-95
2024/03/07 12:58:57;;;;;;;9.55;3.58;;;;;;;9.62;100.00;100545.84;4811492;29;20038;-95
2024/03/07 13:02:08;;;;;;;10.65;4.43;;;;;;;9.70;100.00;100543.31;4818777;29;20137;-95
2024/03/07 13:08:29;;;;;;;10.90;4.32;;;;;;;9.84;100.00;100528.06;4804545;29;20050;-94
2024/03/07 13:15:37;;;;;;;14.93;6.95;;;;;;;9.52;100.00;100525.50;4821931;29;20109;-95
2024/03/07 13:22:48;;;;;;;10.30;4.07;;;;;;;8.98;100.00;100525.75;4830083;29;20053;-93
2024/03/07 13:25:25;;;;;;;9.32;4.80;;;;;;;9.06;100.00;100525.09;4783241;29;20078;-90
2024/03/07 13:40:22;;;;;;;5.10;2.60;;;;;;;9.48;100.00;100499.53;4748443;30;20399;-94
2024/03/07 13:43:37;;;;;;;4.38;2.47;;;;;;;9.20;100.00;100492.25;4748143;30;20541;-89
2024/03/07 13:46:03;;;;;;;2.58;2.17;;;;;;;8.97;100.00;100507.41;4764279;30;20047;-92
2024/03/07 13:48:40;;;;;;;5.85;2.72;;;;;;;8.93;100.00;100494.50;4745301;30;20043;-92
2024/03/07 13:55:08;;;;;;;7.03;4.15;;;;;;;8.65;100.00;100503.94;4768224;30;20066;-90
2024/03/07 13:57:51;;;;;;;10.00;4.38;;;;;;;8.53;100.00;100489.97;4744722;29;20051;-89
2024/03/07 14:01:00;;;;;;;10.00;5.05;;;;;;;8.56;100.00;100503.78;4810595;29;20038;-94
2024/03/07 14:04:16;;;;;;;4.95;3.15;;;;;;;8.14;100.00;100493.19;4826287;29;20038;-92
2024/03/07 14:07:17;;;;;;;6.20;3.53;;;;;;;8.17;100.00;100488.50;4810920;29;20037;-86
2024/03/07 14:10:28;;;;;;;8.43;4.60;;;;;;;8.33;100.00;100489.84;4811519;29;20052;-90
2024/03/07 14:13:48;;;;;;;5.35;3.50;;;;;;;8.32;100.00;100480.28;4818994;29;20383;-90
2024/03/07 14:17:12;;;;;;;7.85;3.40;;;;;;;8.13;100.00;100478.34;4830136;29;20050;-89
2024/03/07 14:25:00;;;;;;;8.38;3.88;;;;;;;8.23;100.00;100481.91;4826701;29;20050;-94
2024/03/07 14:27:22;;;;;;;9.93;4.68;;;;;;;8.11;100.00;100475.00;4825214;29;20049;-92
2024/03/07 14:30:25;;;;;;;8.75;4.22;;;;;;;8.10;100.00;100473.34;4825684;29;20071;-93
2024/03/07 14:33:01;;;;;;;2.45;1.75;;;;;;;7.86;100.00;100485.78;4843758;29;20160;-91
2024/03/07 14:36:07;;;;;;;6.32;4.40;;;;;;;8.05;100.00;100477.19;4843104;29;20042;-94
2024/03/07 14:38:49;;;;;;;5.97;3.65;;;;;;;8.29;100.00;100462.97;4814234;29;20046;-88
2024/03/07 14:41:51;;;;;;;6.53;3.88;;;;;;;8.50;100.00;100466.53;4823157;29;20045;-91
2024/03/07 14:44:29;;;;;;;7.30;3.47;;;;;;;8.33;100.00;100463.50;4823593;29;20064;-91
2024/03/07 14:47:28;;;;;;;5.40;3.38;;;;;;;8.29;100.00;100460.31;4840962;29;20493;-92
2024/03/07 14:49:54;;;;;;;5.95;2.97;;;;;;;8.00;100.00;100462.72;4814944;29;20033;-88
2024/03/07 14:52:25;;;;;;;3.17;1.63;;;;;;;7.98;100.00;100462.03;4828490;29;20049;-93
2024/03/07 14:54:56;;;;;;;3.63;1.75;;;;;;;7.70;100.00;100467.78;4830095;29;20049;-90
2024/03/07 14:57:26;;;;;;;8.73;4.35;;;;;;;7.68;100.00;100449.47;4819703;29;20102;-89
2024/03/07 14:59:54;;;;;;;8.57;3.80;;;;;;;7.81;100.00;100457.22;4795021;29;20441;-90
2024/03/07 15:02:59;;;;;;;10.02;3.88;;;;;;;7.76;100.00;100454.09;4812805;29;20053;-92
2024/03/07 15:06:24;;;;;;;4.55;2.92;;;;;;;7.64;100.00;100444.59;4823802;29;20042;-92
2024/03/07 15:13:42;;;;;;;8.25;4.22;;;;;;;7.60;100.00;100443.19;4843759;29;20093;-95
2024/03/07 15:16:24;;;;;;;7.80;4.47;;;;;;;7.61;100.00;100434.31;4758859;30;20047;-91
2024/03/07 15:19:22;;;;;;;8.63;3.78;;;;;;;7.47;100.00;100438.06;4774704;30;20537;-88
2024/03/07 15:21:58;;;;;;;9.82;3.67;;;;;;;7.37;100.00;100440.59;4740312;30;20615;-94
2024/03/07 15:24:24;;;;;;;4.00;2.38;;;;;;;7.40;100.00;100450.88;4755439;30;20056;-91
2024/03/07 15:35:19;;;;;;;11.02;4.80;;;;;;;7.65;100.00;100430.47;4683847;30;20077;-94
2024/03/07 15:39:26;;;;;;;9.38;5.03;;;;;;;7.51;100.00;100416.66;4667272;30;20054;-91
2024/03/07 15:47:17;;;;;;;7.70;5.30;;;;;;;7.51;100.00;100421.91;4726547;30;20048;-87
2024/03/07 15:50:18;;;;;;;12.57;6.88;;;;;;;7.36;100.00;100410.03;4746536;30;20064;-92
2024/03/07 15:53:35;;;;;;;3.90;2.30;;;;;;;7.20;100.00;100405.97;4760073;29;20078;-91
2024/03/07 15:56:21;;;;;;;9.80;6.07;;;;;;;7.38;100.00;100400.19;4772731;29;20047;-87
2024/03/07 15:59:17;;;;;;;8.23;5.28;;;;;;;7.64;100.00;100407.75;4777959;30;20034;-91
2024/03/07 16:02:36;;;;;;;8.50;5.47;;;;;;;7.72;100.00;100409.75;4784811;29;20612;-91
2024/03/07 16:56:19;;;;;;;16.20;7.43;;;;;;;7.13;100.00;100392.50;5569999;23;20073;-83
2024/03/07 16:59:25;;;;;;;12.10;6.85;;;;;;;7.09;100.00;100382.38;5626212;23;20068;-96
2024/03/07 17:02:14;;;;;;;4.72;3.13;;;;;;;6.95;100.00;100385.13;4879473;29;20055;-96
2024/03/07 17:04:40;;;;;;;14.13;8.30;;;;;;;7.02;100.00;100376.75;4879894;29;20068;-96
2024/03/07 17:07:11;;;;;;;14.63;9.48;;;;;;;7.22;100.00;100380.41;4851046;29;20037;-96
2024/03/07 17:09:41;;;;;;;16.45;10.25;;;;;;;7.23;100.00;100370.75;4877984;29;20054;-96
2024/03/07 17:12:36;;;;;;;17.38;10.35;;;;;;;7.32;100.00;100368.19;4868295;29;20043;-96
2024/03/07 17:15:34;;;;;;;14.15;9.88;;;;;;;7.25;100.00;100356.50;4852779;29;20117;-96
2024/03/07 17:18:10;;;;;;;12.95;7.30;;;;;;;7.08;100.00;100365.75;4905325;29;20033;-96
2024/03/07 17:20:43;;;;;;;14.98;8.38;;;;;;;6.93;100.00;100352.03;4874812;29;20382;-96
2024/03/07 17:28:03;;;;;;;19.77;10.63;;;;;;;7.09;100.00;100348.19;4844750;29;20041;-96
2024/03/07 17:30:34;;;;;;;19.88;9.77;;;;;;;7.12;100.00;100351.41;4826718;29;20513;-96
2024/03/07 17:50:38;;;;;;;16.95;11.07;;;;;;;7.31;100.00;100321.81;4843425;29;20048;-96
2024/03/07 17:53:08;;;;;;;21.52;12.07;;;;;;;7.29;100.00;100323.72;4804075;29;20537;-96
2024/03/07 17:55:55;;;;;;;19.80;12.52;;;;;;;7.36;100.00;100329.31;4835396;29;20057;-96
2024/03/07 17:58:21;;;;;;;18.35;10.77;;;;;;;7.30;100.00;100320.16;4862764;29;20029;-96
2024/03/07 18:00:48;;;;;;;21.52;11.68;;;;;;;7.24;100.00;100315.41;4866524;29;20056;-96
2024/03/07 18:03:19;;;;;;;18.50;11.68;;;;;;;7.16;100.00;100313.41;4871691;29;20044;-96
2024/03/07 18:05:52;;;;;;;19.63;11.43;;;;;;;6.93;100.00;100312.63;4868987;29;20036;-96
2024/03/07 18:08:19;;;;;;;18.15;8.43;;;;;;;6.79;100.00;100319.84;4877778;29;20037;-96
2024/03/07 18:10:47;;;;;;;18.27;9.40;;;;;;;6.68;100.00;100312.81;4849630;29;20047;-96
2024/03/07 18:13:14;;;;;;;13.15;7.38;;;;;;;6.62;100.00;100309.84;4854490;29;20063;-96
2024/03/07 18:15:41;;;;;;;17.60;8.93;;;;;;;6.57;100.00;100307.56;4877607;29;20049;-96
2024/03/07 18:18:12;;;;;;;19.58;9.35;;;;;;;6.58;100.00;100307.44;4865707;29;20060;-96
2024/03/07 18:20:40;;;;;;;17.30;8.88;;;;;;;6.55;100.00;100309.47;4875486;29;20041;-96
2024/03/07 18:23:07;;;;;;;20.05;10.07;;;;;;;6.55;100.00;100305.06;4862409;29;20037;-96
2024/03/07 18:25:37;;;;;;;8.23;4.10;;;;;;;6.53;100.00;100312.22;4861330;29;20052;-96
2024/03/07 18:28:07;;;;;;;19.85;10.10;;;;;;;6.57;100.00;100307.56;4874493;29;20038;-97
2024/03/07 18:30:36;;;;;;;23.08;10.55;;;;;;;6.62;100.00;100305.44;4875726;29;20037;-96
2024/03/07 18:33:09;;;;;;;15.88;5.57;;;;;;;6.45;100.00;100302.31;4869219;29;20104;-96
2024/03/07 18:35:42;;;;;;;16.73;9.10;;;;;;;6.54;100.00;100299.94;4955583;24;20061;-96
2024/03/07 18:38:13;;;;;;;17.65;10.95;;;;;;;6.53;100.00;100308.78;4861542;29;20053;-96
2024/03/07 18:40:40;;;;;;;13.48;8.50;;;;;;;6.54;100.00;100297.31;4867933;29;20033;-96
2024/03/07 18:43:11;;;;;;;11.05;7.13;;;;;;;6.49;100.00;100295.06;4862149;29;20017;-96
2024/03/07 18:45:51;;;;;;;16.23;8.50;;;;;;;6.47;100.00;100296.97;5186970;24;20052;-96
2024/03/07 18:48:25;;;;;;;13.38;6.10;;;;;;;6.35;100.00;100304.03;4856469;29;20053;-96
2024/03/07 18:50:58;;;;;;;7.47;3.63;;;;;;;6.23;100.00;100310.22;4863188;29;20036;-96
2024/03/07 18:53:26;;;;;;;10.38;5.93;;;;;;;6.28;100.00;100303.66;4854165;29;20052;-96
2024/03/07 18:55:56;;;;;;;14.65;6.95;;;;;;;6.30;100.00;100314.03;5085547;24;20043;-83
2024/03/07 18:58:23;;;;;;;14.07;4.40;;;;;;;6.26;100.00;100312.63;4843511;29;20511;-85
2024/03/07 19:01:09;;;;;;;10.38;6.22;;;;;;;6.36;100.00;100310.09;4825093;29;20492;-85
2024/03/07 19:03:35;;;;;;;23.58;10.27;;;;;;;6.32;100.00;100293.75;5115488;24;20097;-96
2024/03/07 19:06:10;;;;;;;19.45;9.90;;;;;;;6.42;100.00;100293.84;4849562;29;20056;-96
2024/03/07 19:08:39;;;;;;;12.52;6.57;;;;;;;6.37;100.00;100291.59;4867442;29;20052;-96
2024/03/07 19:13:58;;;;;;;9.40;5.20;;;;;;;6.37;100.00;100288.16;4891524;29;20416;-84
2024/03/07 19:16:30;;;;;;;13.85;7.47;;;;;;;6.37;100.00;100291.59;4871146;29;20049;-85
2024/03/07 19:19:13;;;;;;;13.27;6.13;;;;;;;6.38;100.00;100292.44;4959865;24;20064;-85
2024/03/07 19:21:42;;;;;;;14.65;6.57;;;;;;;6.35;100.00;100293.53;4866247;29;20052;-90
2024/03/07 19:24:19;;;;;;;17.38;7.63;;;;;;;6.39;100.00;100283.59;4865532;29;20571;-85
2024/03/07 19:26:53;;;;;;;18.55;10.32;;;;;;;6.41;100.00;100292.19;4847390;29;20500;-85
2024/03/07 19:29:49;;;;;;;29.05;11.38;;;;;;;6.39;100.00;100291.47;4858763;29;20088;-84
2024/03/07 19:36:54;;;;;;;14.98;9.00;;;;;;;6.34;100.00;100283.94;4870734;29;20080;-83
2024/03/07 19:40:08;;;;;;;;;;;;;;;;;;;;;
2024/03/07 19:42:43;;;;;;;31.80;14.43;;;;;;;6.30;100.00;100279.91;4865679;29;20587;-85
2024/03/07 19:49:40;;;;;;;30.20;16.02;;;;;;;6.33;100.00;100277.88;4869712;29;20252;-86
2024/03/07 19:52:39;;;;;;;24.95;16.25;;;;;;;6.42;100.00;100286.81;4872175;29;20040;-86
2024/03/07 19:59:16;;;;;;;24.92;10.68;;;;;;;6.23;100.00;100286.59;4888375;29;20040;-84
2024/03/07 20:01:55;;;;;;;22.85;10.93;;;;;;;6.22;100.00;100275.25;4881591;29;20037;-84
2024/03/07 21:02:38;;;;;;;;;;;;;;;;;;;;;
2024/03/07 21:06:27;;;;;;;29.90;16.00;;;;;;;6.05;100.00;100226.72;4887580;29;20149;-84
2024/03/07 21:10:00;;;;;;;32.08;15.35;;;;;;;6.04;100.00;100210.16;4855247;29;20040;-86
2024/03/07 22:21:42;;;;;;;42.22;18.75;;;;;;;5.96;100.00;100158.25;5493888;24;20105;-96
2024/03/07 22:24:17;;;;;;;46.88;26.67;;;;;;;6.08;100.00;100163.50;4852008;29;20045;-96
2024/03/07 22:26:55;;;;;;;37.35;18.85;;;;;;;6.00;100.00;100158.84;4852350;29;20068;-96
2024/03/07 22:29:21;;;;;;;;;;;;;;;6.02;100.00;100149.03;4846100;29;20140;-96
2024/03/07 22:31:48;;;;;;;36.00;16.65;;;;;;;5.96;100.00;100157.41;4846937;29;19916;-96
2024/03/07 22:34:16;;;;;;;40.35;21.95;;;;;;;5.92;100.00;100148.13;4844847;29;20492;-96
2024/03/07 22:37:12;;;;;;;54.70;26.65;;;;;;;6.10;100.00;100150.28;4845567;29;20044;-96
2024/03/07 22:39:50;;;;;;;46.38;24.17;;;;;;;6.01;100.00;100136.88;4895927;24;20417;-96
2024/03/07 22:42:20;;;;;;;49.03;28.33;;;;;;;6.03;100.00;100135.00;4826117;29;20186;-96
2024/03/07 22:45:16;;;;;;;50.45;26.15;;;;;;;5.92;100.00;100135.00;5549083;24;20954;-96
2024/03/07 22:51:01;;;;;;;49.53;28.52;;;;;;;5.97;100.00;100124.97;4911813;23;20086;-96
